Time;durP1;ratioP1;P1;durP2;ratioP2;P2;SDS_P1;SDS_P2;PMS_P1;PMS_P2;Temp;Humidity;BMP_temperature;BMP_pressure;BME280_temperature;BME280_humidity;BME280_pressure;Samples;Min_cycle;Max_cycle;Signal;HPM_P1;HPM_P2
2022/01/12 00:01:05;;;;;;;23.20;9.80;;;;;;;-3.43;98.94;97593.00;5097306;28;20446;-34
2022/01/12 00:03:34;;;;;;;22.50;13.07;;;;;;;-3.36;99.11;97604.50;5096877;28;20491;-32
2022/01/12 00:06:01;;;;;;;24.83;12.50;;;;;;;-3.37;98.30;97596.88;5096990;28;20470;-32
2022/01/12 00:08:30;;;;;;;24.23;12.67;;;;;;;-3.37;98.87;97602.88;5097224;28;20442;-33
2022/01/12 00:10:58;;;;;;;19.37;8.40;;;;;;;-3.48;98.44;97586.53;5096830;28;20449;-33
2022/01/12 00:13:26;;;;;;;25.00;11.13;;;;;;;-3.38;98.65;97606.41;5096725;28;20457;-33
2022/01/12 00:15:55;;;;;;;35.53;15.70;;;;;;;-3.41;99.25;97608.47;5096995;28;20442;-32
2022/01/12 00:18:23;;;;;;;24.47;11.50;;;;;;;-3.46;99.79;97614.03;5096654;28;20439;-32
2022/01/12 00:20:51;;;;;;;22.37;11.53;;;;;;;-3.45;99.40;97609.66;5096948;28;20800;-33
2022/01/12 00:23:19;;;;;;;31.77;12.50;;;;;;;-3.45;99.29;97614.88;5096554;28;20494;-33
2022/01/12 00:25:59;;;;;;;25.37;9.87;;;;;;;-3.44;99.52;97621.69;5096461;28;20783;-33
2022/01/12 00:34:00;;;;;;;17.70;10.10;;;;;;;-3.45;99.87;97628.66;5096890;28;20406;-33
2022/01/12 00:36:27;;;;;;;28.87;11.47;;;;;;;-3.46;100.00;97624.44;5096728;28;20447;-33
2022/01/12 00:38:55;;;;;;;22.33;9.20;;;;;;;-3.44;100.00;97619.09;5096549;28;20805;-33
2022/01/12 00:41:23;;;;;;;18.37;9.20;;;;;;;-3.44;100.00;97619.94;5096608;28;20435;-32
2022/01/12 00:43:57;;;;;;;22.23;9.90;;;;;;;-3.46;100.00;97628.78;5096104;28;20490;-32
2022/01/12 00:46:26;;;;;;;19.90;9.87;;;;;;;-3.48;100.00;97634.13;5096248;28;20431;-31
2022/01/12 00:48:55;;;;;;;24.40;10.90;;;;;;;-3.50;100.00;97620.44;5096085;28;20447;-31
2022/01/12 00:51:22;;;;;;;27.23;11.90;;;;;;;-3.52;100.00;97619.75;5096415;28;20467;-32
2022/01/12 00:53:50;;;;;;;24.50;11.43;;;;;;;-3.56;100.00;97629.56;5096126;28;20488;-32
2022/01/12 00:56:17;;;;;;;25.87;9.63;;;;;;;-3.60;100.00;97611.75;5095782;28;20996;-31
2022/01/12 00:58:44;;;;;;;26.63;9.20;;;;;;;-3.59;99.30;97613.41;5095961;28;20438;-31
2022/01/12 01:01:11;;;;;;;19.03;8.70;;;;;;;-3.62;99.48;97630.06;5095904;28;20446;-31
2022/01/12 01:03:40;;;;;;;20.27;9.70;;;;;;;-3.69;98.73;97628.09;5096165;28;20816;-31
2022/01/12 01:06:09;;;;;;;20.77;8.17;;;;;;;-3.68;98.43;97629.75;5096003;28;20923;-33
2022/01/12 01:08:37;;;;;;;19.60;8.47;;;;;;;-3.70;98.42;97637.66;5095987;28;20450;-32
2022/01/12 01:11:04;;;;;;;14.00;8.23;;;;;;;-3.68;97.58;97629.75;5095789;28;20450;-31
2022/01/12 01:13:38;;;;;;;15.97;8.23;;;;;;;-3.72;97.22;97624.81;5095561;28;20816;-31
2022/01/12 01:16:15;;;;;;;13.50;7.30;;;;;;;-3.73;97.20;97628.34;5095663;28;20895;-32
2022/01/12 01:26:58;;;;;;;28.57;9.60;;;;;;;-3.75;98.06;97625.06;5095845;28;20485;-33
2022/01/12 01:29:26;;;;;;;23.73;11.77;;;;;;;-3.78;98.07;97625.31;5095366;28;20883;-32
2022/01/12 01:31:53;;;;;;;23.83;10.90;;;;;;;-3.75;98.44;97625.06;5095578;28;20914;-33
2022/01/12 01:34:22;;;;;;;15.10;8.50;;;;;;;-3.75;98.99;97627.66;5095248;28;20446;-32
2022/01/12 01:36:51;;;;;;;27.53;10.10;;;;;;;-3.73;98.82;97641.31;5095192;28;20445;-33
2022/01/12 01:39:21;;;;;;;17.63;7.93;;;;;;;-3.69;99.70;97633.28;5095161;28;20450;-33
2022/01/12 01:41:53;;;;;;;18.57;11.07;;;;;;;-3.64;99.81;97628.53;5095353;28;20443;-33
2022/01/12 01:55:24;;;;;;;23.57;11.03;;;;;;;-3.66;100.00;97633.84;5095002;28;20469;-32
2022/01/12 01:57:51;;;;;;;22.30;9.90;;;;;;;-3.66;100.00;97638.22;5094722;28;20478;-32
2022/01/12 02:00:22;;;;;;;22.47;9.87;;;;;;;-3.67;100.00;97642.59;5095018;28;20439;-33
2022/01/12 02:02:50;;;;;;;14.90;8.17;;;;;;;-3.73;100.00;97638.72;5094672;28;20516;-33
2022/01/12 02:05:19;;;;;;;23.17;9.53;;;;;;;-3.69;100.00;97633.28;5094970;28;20435;-32
2022/01/12 02:07:46;;;;;;;23.17;12.77;;;;;;;-3.69;100.00;97643.69;5094734;28;20442;-32
2022/01/12 02:10:14;;;;;;;23.57;8.57;;;;;;;-3.72;100.00;97644.75;5094545;28;20808;-32
2022/01/12 02:12:41;;;;;;;21.43;9.90;;;;;;;-3.69;100.00;97657.47;5094548;28;20439;-33
2022/01/12 02:15:15;;;;;;;25.37;11.43;;;;;;;-3.77;100.00;97650.31;5094760;28;20443;-33
2022/01/12 02:17:57;;;;;;;19.20;9.27;;;;;;;-3.81;100.00;97643.72;5094755;28;20461;-33
2022/01/12 02:35:12;;;;;;;28.67;10.00;;;;;;;-3.78;100.00;97651.25;5094504;28;20438;-32
2022/01/12 02:37:17;;;;;;;25.07;11.47;;;;;;;-3.75;100.00;97661.38;5094391;28;20510;-32
2022/01/12 02:39:55;;;;;;;27.90;11.37;;;;;;;-3.73;100.00;97669.06;5094406;28;20488;-34
2022/01/12 02:42:23;;;;;;;27.87;11.73;;;;;;;-3.75;100.00;97655.38;5095004;28;20431;-33
2022/01/12 02:50:46;;;;;;;41.50;15.07;;;;;;;-3.67;100.00;97657.34;5012440;28;20434;-33
2022/01/12 02:56:00;;;;;;;88.73;34.20;;;;;;;-3.63;100.00;97661.34;5093920;28;20410;-31
2022/01/12 02:58:27;;;;;;;41.03;19.63;;;;;;;-3.58;100.00;97662.59;5093847;28;20432;-32
2022/01/12 03:01:13;;;;;;;22.00;10.93;;;;;;;-3.56;100.00;97662.50;5093997;28;20457;-32
2022/01/12 03:03:43;;;;;;;36.53;14.13;;;;;;;-3.79;100.00;97634.03;5092795;28;20475;-32
2022/01/12 03:06:14;;;;;;;23.43;10.60;;;;;;;-3.61;99.74;97667.25;5093984;28;20451;-31
2022/01/12 03:08:42;;;;;;;17.87;9.97;;;;;;;-3.68;99.68;97666.06;5094514;28;20438;-32
2022/01/12 03:11:12;;;;;;;26.60;11.13;;;;;;;-3.69;99.93;97664.44;5093854;28;20511;-31
2022/01/12 03:13:40;;;;;;;31.00;10.77;;;;;;;-3.67;100.00;97665.16;5094461;28;20423;-32
2022/01/12 03:16:13;;;;;;;26.70;13.57;;;;;;;-3.65;100.00;97665.84;5093500;28;20447;-31
2022/01/12 03:18:41;;;;;;;17.03;10.50;;;;;;;-3.63;100.00;97669.97;5093515;28;20431;-32
2022/01/12 03:21:09;;;;;;;19.80;8.57;;;;;;;-3.66;99.66;97665.00;5093837;28;20801;-32
2022/01/12 03:23:36;;;;;;;31.40;12.07;;;;;;;-3.72;99.83;97674.13;5093316;28;20487;-32
2022/01/12 03:26:04;;;;;;;20.87;9.80;;;;;;;-3.79;100.00;97680.75;5093433;28;20953;-32
2022/01/12 03:28:33;;;;;;;23.90;8.67;;;;;;;-3.83;99.86;97675.94;5093448;28;20955;-32
2022/01/12 03:31:07;;;;;;;30.77;11.10;;;;;;;-3.86;100.00;97677.00;5093616;28;20442;-33
2022/01/12 03:33:57;;;;;;;17.70;9.50;;;;;;;-3.87;100.00;97670.19;5093279;28;20469;-32
2022/01/12 04:09:26;;;;;;;30.93;10.70;;;;;;;-4.09;99.46;97693.59;5093048;28;20933;-33
2022/01/12 04:11:53;;;;;;;26.40;10.27;;;;;;;-4.05;98.45;97695.00;5092993;28;20939;-33
2022/01/12 04:14:20;;;;;;;24.00;10.77;;;;;;;-4.05;98.54;97713.16;5093600;28;20447;-32
2022/01/12 04:16:48;;;;;;;17.07;8.27;;;;;;;-4.06;98.16;97708.94;5097044;28;20526;-32
2022/01/12 04:19:15;;;;;;;20.37;10.20;;;;;;;-4.05;97.90;97710.56;5097113;28;20442;-32
2022/01/12 04:21:47;;;;;;;24.80;10.33;;;;;;;-4.05;98.09;97715.75;5096634;28;20443;-34
2022/01/12 04:24:15;;;;;;;17.60;9.90;;;;;;;-4.18;98.57;97703.75;5096648;28;20482;-33
2022/01/12 04:26:43;;;;;;;22.33;9.17;;;;;;;-4.04;98.40;97725.19;5096883;28;20447;-33
2022/01/12 04:29:10;;;;;;;21.83;9.27;;;;;;;-4.06;98.47;97719.31;5097450;28;20447;-33
2022/01/12 04:31:38;;;;;;;16.90;9.27;;;;;;;-4.05;98.11;97724.34;5096496;28;20449;-33
2022/01/12 04:34:06;;;;;;;21.47;8.70;;;;;;;-4.05;97.54;97731.31;5096721;28;20450;-33
2022/01/12 04:36:33;;;;;;;16.37;8.50;;;;;;;-4.05;97.08;97733.91;5096307;28;20895;-32
2022/01/12 04:39:02;;;;;;;13.33;8.60;;;;;;;-4.09;97.04;97740.28;5096542;28;20441;-33
2022/01/12 04:41:30;;;;;;;13.40;7.47;;;;;;;-4.13;97.24;97743.13;5096313;28;20447;-33
2022/01/12 04:43:57;;;;;;;13.07;8.43;;;;;;;-4.18;97.52;97747.03;5096135;28;20486;-33
2022/01/12 04:46:32;;;;;;;24.03;8.80;;;;;;;-4.21;97.63;97736.91;5096170;28;20439;-33
2022/01/12 04:49:25;;;;;;;14.67;6.43;;;;;;;-4.22;98.05;97749.03;5096490;28;20422;-33
2022/01/12 04:51:53;;;;;;;22.23;8.93;;;;;;;-4.23;97.36;97752.56;5096292;28;20428;-33
2022/01/12 04:54:22;;;;;;;18.07;8.27;;;;;;;-4.27;98.05;97745.97;5096204;28;20451;-33
2022/01/12 04:56:49;;;;;;;19.40;9.13;;;;;;;-4.30;98.42;97748.81;5096151;28;20962;-33
2022/01/12 04:59:16;;;;;;;15.50;7.63;;;;;;;-4.35;99.15;97750.94;5095969;28;20450;-33
2022/01/12 05:01:52;;;;;;;23.80;9.00;;;;;;;-4.30;98.86;97754.00;5095923;28;20873;-33
2022/01/12 05:07:24;;;;;;;27.80;8.93;;;;;;;-4.37;99.31;97761.41;5096103;28;20414;-32
2022/01/12 05:12:54;;;;;;;10.97;6.70;;;;;;;-4.25;99.52;97766.63;5053711;28;21063;-34
2022/01/12 05:15:32;;;;;;;40.80;18.53;;;;;;;-4.38;99.36;97756.38;5053380;28;20475;-33
2022/01/12 05:17:59;;;;;;;25.33;12.47;;;;;;;-4.17;99.13;97783.22;5053311;28;20449;-34
2022/01/12 05:20:26;;;;;;;30.83;11.53;;;;;;;-4.13;98.80;97791.56;5053271;28;20453;-33
2022/01/12 05:22:53;;;;;;;22.87;11.57;;;;;;;-4.15;98.73;97778.75;5053326;28;20433;-33
2022/01/12 05:25:23;;;;;;;17.93;8.87;;;;;;;-4.14;98.85;97795.94;5052830;28;20488;-33
2022/01/12 05:27:52;;;;;;;19.60;10.50;;;;;;;-4.18;98.71;97789.34;5052507;28;20441;-33
2022/01/12 05:30:19;;;;;;;20.40;9.80;;;;;;;-4.17;99.14;97801.38;5053211;28;20477;-32
2022/01/12 05:32:47;;;;;;;23.47;11.57;;;;;;;-4.14;98.57;97801.13;5052918;28;20457;-33
2022/01/12 05:35:16;;;;;;;21.77;8.87;;;;;;;-4.13;98.46;97797.63;5052882;28;20491;-33
2022/01/12 05:37:45;;;;;;;28.03;14.30;;;;;;;-4.07;98.66;97800.66;5053019;28;20445;-33
2022/01/12 05:40:13;;;;;;;38.97;18.10;;;;;;;-4.03;98.53;97809.84;5053073;28;20451;-33
2022/01/12 05:42:43;;;;;;;28.67;12.50;;;;;;;-4.04;98.28;97805.59;5052789;28;20449;-33
2022/01/12 05:45:11;;;;;;;42.50;19.00;;;;;;;-4.01;98.72;97810.56;5052657;28;20492;-33
2022/01/12 05:49:34;;;;;;;20.47;11.87;;;;;;;-3.98;99.52;97813.75;5052606;28;20456;-33
2022/01/12 05:50:29;;;;;;;28.47;10.70;;;;;;;-3.95;99.22;97815.28;5094365;28;20837;-32
2022/01/12 05:52:56;;;;;;;21.33;11.50;;;;;;;-4.05;99.21;97820.34;5095309;28;20847;-31
2022/01/12 05:55:24;;;;;;;33.30;13.07;;;;;;;-4.06;99.55;97828.28;5094929;28;20446;-33
2022/01/12 05:57:53;;;;;;;43.03;17.53;;;;;;;-4.14;99.90;97821.88;5094878;28;20478;-33
2022/01/12 06:00:22;;;;;;;21.03;10.57;;;;;;;-4.14;100.00;97832.25;5095351;28;20448;-32
2022/01/12 06:02:50;;;;;;;38.73;17.50;;;;;;;-4.19;100.00;97834.41;5095088;28;20447;-33
2022/01/12 06:05:18;;;;;;;41.40;19.83;;;;;;;-4.12;100.00;97837.34;5094830;28;20490;-33
2022/01/12 06:07:46;;;;;;;38.60;18.93;;;;;;;-4.10;100.00;97845.81;5094993;28;20454;-32
2022/01/12 06:10:13;;;;;;;28.37;11.13;;;;;;;-4.14;100.00;97834.84;5094862;28;20443;-33
2022/01/12 06:12:41;;;;;;;26.07;13.07;;;;;;;-4.28;100.00;97832.50;5094479;28;20447;-33
2022/01/12 06:15:10;;;;;;;38.73;18.40;;;;;;;-4.21;100.00;97867.41;5095555;28;20450;-33
2022/01/12 06:17:38;;;;;;;31.83;16.43;;;;;;;-4.29;100.00;97822.25;5094445;28;21017;-33
2022/01/12 06:20:08;;;;;;;47.83;19.67;;;;;;;-4.15;100.00;97840.16;5094855;28;20442;-32
2022/01/12 06:22:35;;;;;;;28.87;13.27;;;;;;;-3.99;100.00;97861.38;5094881;28;20876;-33
2022/01/12 06:25:07;;;;;;;31.63;11.80;;;;;;;-3.97;100.00;97864.69;5094437;28;20486;-32
2022/01/12 06:27:34;;;;;;;24.87;11.40;;;;;;;-3.98;100.00;97864.78;5094216;28;20438;-33
2022/01/12 06:31:10;;;;;;;34.90;14.23;;;;;;;-3.89;100.00;97871.03;5094298;28;20488;-33
2022/01/12 06:32:54;;;;;;;28.23;12.23;;;;;;;-3.84;100.00;97869.75;5094038;28;20518;-32
2022/01/12 06:35:22;;;;;;;27.73;12.40;;;;;;;-3.88;99.80;97873.53;5094215;28;20439;-33
2022/01/12 06:37:50;;;;;;;25.20;9.57;;;;;;;-3.86;100.00;97878.59;5094155;28;20449;-33
2022/01/12 06:40:18;;;;;;;16.80;9.00;;;;;;;-3.83;100.00;97881.78;5094027;28;20451;-32
2022/01/12 06:42:46;;;;;;;26.27;9.20;;;;;;;-3.87;99.75;97880.38;5093973;28;20922;-33
2022/01/12 06:45:13;;;;;;;24.93;10.03;;;;;;;-3.82;99.85;97883.44;5093912;28;20498;-33
2022/01/12 06:47:40;;;;;;;16.17;9.17;;;;;;;-3.80;100.00;97891.94;5093852;28;20541;-33
2022/01/12 06:50:10;;;;;;;27.70;10.77;;;;;;;-3.77;100.00;97891.66;5094191;28;20843;-32
2022/01/12 06:52:37;;;;;;;20.40;9.30;;;;;;;-3.76;99.34;97895.94;5094124;28;20442;-33
2022/01/12 06:55:05;;;;;;;34.80;12.07;;;;;;;-3.79;99.43;97888.38;5093992;28;20438;-32
2022/01/12 06:57:32;;;;;;;30.53;10.43;;;;;;;-3.77;99.88;97906.44;5093681;28;20806;-33
2022/01/12 06:59:59;;;;;;;23.33;10.80;;;;;;;-3.77;99.23;97896.03;5093732;28;20923;-33
2022/01/12 07:02:27;;;;;;;35.13;10.20;;;;;;;-3.83;98.70;97899.97;5093756;28;20442;-33
2022/01/12 07:04:54;;;;;;;31.43;10.23;;;;;;;-3.79;99.19;97901.34;5093878;28;20826;-33
2022/01/12 07:07:24;;;;;;;14.10;8.10;;;;;;;-3.83;99.17;97912.94;5093470;28;20516;-33
2022/01/12 07:09:51;;;;;;;19.87;10.57;;;;;;;-3.82;99.42;97900.78;5093894;28;20471;-33
2022/01/12 07:12:18;;;;;;;15.93;8.30;;;;;;;-3.80;99.66;97902.31;5093732;28;20532;-33
2022/01/12 07:14:45;;;;;;;23.03;8.47;;;;;;;-3.73;99.59;97902.66;5093958;28;20790;-34
2022/01/12 07:17:13;;;;;;;25.40;10.03;;;;;;;-3.90;98.78;97885.78;5093449;28;20447;-33
2022/01/12 07:19:40;;;;;;;26.80;12.87;;;;;;;-3.66;98.95;97909.00;5093425;28;20969;-33
2022/01/12 07:22:08;;;;;;;29.90;9.80;;;;;;;-3.58;99.07;97908.44;5093687;28;20487;-32
2022/01/12 07:24:37;;;;;;;42.23;17.23;;;;;;;-3.57;98.19;97915.25;5093309;28;20478;-32
2022/01/12 07:27:04;;;;;;;56.13;18.30;;;;;;;-3.61;97.83;97916.47;5093360;28;20439;-32
2022/01/12 07:29:32;;;;;;;36.20;15.60;;;;;;;-3.77;97.57;97891.66;5093583;28;20454;-33
2022/01/12 07:31:59;;;;;;;27.33;14.30;;;;;;;-3.53;98.16;97921.84;5093738;28;20443;-33
2022/01/12 07:34:26;;;;;;;31.97;12.40;;;;;;;-3.50;98.21;97927.66;5093656;28;20450;-33
2022/01/12 07:36:53;;;;;;;27.33;11.97;;;;;;;-3.40;98.60;97930.38;5093735;28;20926;-32
2022/01/12 07:39:20;;;;;;;27.33;9.77;;;;;;;-3.39;97.59;97926.81;5093506;28;20443;-32
2022/01/12 07:41:49;;;;;;;39.93;14.87;;;;;;;-3.33;97.64;97926.31;5093464;28;20443;-33
2022/01/12 07:44:16;;;;;;;24.00;9.13;;;;;;;-3.26;97.73;97925.84;5093071;28;20846;-33
2022/01/12 07:46:44;;;;;;;20.80;8.90;;;;;;;-3.19;96.92;97925.22;5093042;28;20442;-32
2022/01/12 07:49:11;;;;;;;35.40;14.40;;;;;;;-3.10;97.08;97931.44;5093511;28;20874;-32
2022/01/12 07:51:38;;;;;;;27.97;13.33;;;;;;;-3.12;96.00;97920.34;5097534;28;20790;-32
2022/01/12 07:54:05;;;;;;;24.97;10.00;;;;;;;-3.05;95.12;97933.69;5097184;28;20446;-31
2022/01/12 07:56:32;;;;;;;25.80;12.50;;;;;;;-3.09;95.00;97938.31;5097265;28;20475;-32
2022/01/12 07:59:01;;;;;;;32.57;13.43;;;;;;;-3.11;94.67;97940.22;5097405;28;20877;-32
2022/01/12 08:01:28;;;;;;;37.17;17.53;;;;;;;-3.17;94.78;97945.88;5097395;28;20451;-32
2022/01/12 08:03:56;;;;;;;26.97;8.20;;;;;;;-3.22;94.76;97948.03;5097014;28;20478;-31
2022/01/12 08:06:23;;;;;;;18.17;9.53;;;;;;;-3.26;94.46;97944.84;5096935;28;20486;-31
2022/01/12 08:08:50;;;;;;;24.53;11.37;;;;;;;-3.28;93.79;97949.34;5096923;28;20832;-31
2022/01/12 08:11:18;;;;;;;23.10;12.80;;;;;;;-3.27;94.16;97950.97;5096820;28;20443;-33
2022/01/12 08:13:46;;;;;;;37.60;18.40;;;;;;;-3.26;94.66;97952.63;5097138;28;20796;-33
2022/01/12 08:16:14;;;;;;;27.27;14.00;;;;;;;-3.21;94.40;97954.88;5096737;28;20485;-32
2022/01/12 08:18:42;;;;;;;84.73;28.17;;;;;;;-3.25;92.92;97948.25;5096778;28;20915;-33
2022/01/12 08:21:09;;;;;;;171.63;56.47;;;;;;;-3.27;92.33;97955.34;5096594;28;20453;-32
2022/01/12 08:23:36;;;;;;;33.53;12.53;;;;;;;-3.28;92.55;97957.13;5096546;28;20453;-32
2022/01/12 08:26:03;;;;;;;40.07;17.50;;;;;;;-3.26;92.88;97957.00;5096610;28;20486;-33
2022/01/12 08:28:31;;;;;;;19.67;7.53;;;;;;;-3.22;92.54;97958.44;5096623;28;20446;-32
2022/01/12 08:30:58;;;;;;;156.83;56.80;;;;;;;-3.27;92.63;97956.16;5096811;28;20466;-33
2022/01/12 08:33:28;;;;;;;122.70;49.17;;;;;;;-3.26;93.42;97962.22;5096681;28;20451;-33
2022/01/12 08:35:55;;;;;;;69.17;29.27;;;;;;;-3.05;94.24;97964.84;5096843;28;20431;-33
2022/01/12 08:38:23;;;;;;;62.33;27.03;;;;;;;-3.00;93.74;97967.94;5096331;28;20443;-33
2022/01/12 08:40:50;;;;;;;28.63;15.13;;;;;;;-2.95;93.06;97971.81;5096236;28;20915;-33
2022/01/12 08:43:18;;;;;;;21.93;10.03;;;;;;;-2.94;92.99;97957.88;5096287;28;20530;-32
2022/01/12 08:45:45;;;;;;;20.73;9.60;;;;;;;-2.79;93.46;97955.00;5096352;28;20569;-33
2022/01/12 08:48:13;;;;;;;25.17;12.73;;;;;;;-2.71;92.36;97968.19;5096177;28;20453;-33
2022/01/12 08:50:41;;;;;;;25.67;12.30;;;;;;;-2.62;92.09;97967.47;5096118;28;20439;-33
2022/01/12 08:53:09;;;;;;;40.17;21.40;;;;;;;-2.57;91.51;97954.06;5096196;28;20454;-33
2022/01/12 08:55:37;;;;;;;42.63;16.17;;;;;;;-2.49;90.82;97970.72;5095993;28;20457;-33
2022/01/12 08:58:04;;;;;;;35.70;12.10;;;;;;;-2.58;90.19;97961.06;5095771;28;20841;-32
2022/01/12 09:00:32;;;;;;;23.33;11.50;;;;;;;-2.44;90.44;97959.09;5095172;28;20446;-33
2022/01/12 09:03:01;;;;;;;29.90;14.80;;;;;;;-2.50;89.17;97966.44;5095486;28;20868;-33
2022/01/12 09:05:29;;;;;;;29.67;15.33;;;;;;;-2.56;89.77;97972.16;5095764;28;20490;-33
2022/01/12 09:07:59;;;;;;;35.97;20.07;;;;;;;-2.71;90.11;97957.78;5096112;28;20449;-33
2022/01/12 09:10:26;;;;;;;25.30;12.87;;;;;;;-2.79;90.27;97958.41;5096161;28;20454;-33
2022/01/12 09:12:53;;;;;;;24.87;8.93;;;;;;;-3.00;90.70;97947.97;5096017;28;20937;-33
2022/01/12 09:15:25;;;;;;;37.43;18.37;;;;;;;-3.09;91.94;97946.94;5095973;28;20942;-32
2022/01/12 09:17:53;;;;;;;41.80;17.00;;;;;;;-2.97;92.72;97957.28;5095651;28;20424;-33
2022/01/12 09:20:21;;;;;;;20.47;9.17;;;;;;;-3.07;92.32;97959.00;5095573;28;20439;-33
2022/01/12 09:22:49;;;;;;;27.20;15.00;;;;;;;-3.15;91.71;97933.59;5095745;28;20492;-33
2022/01/12 09:25:18;;;;;;;19.70;11.97;;;;;;;-3.01;90.74;97958.47;5095382;28;20485;-33
2022/01/12 09:27:45;;;;;;;22.53;11.23;;;;;;;-3.02;89.64;97955.06;5095412;28;20450;-33
2022/01/12 09:30:15;;;;;;;14.53;8.80;;;;;;;-3.10;89.68;97947.03;5095646;28;20447;-33
2022/01/12 09:32:42;;;;;;;18.17;12.47;;;;;;;-3.07;90.22;97957.22;5095290;28;20450;-33
2022/01/12 09:35:12;;;;;;;21.17;11.70;;;;;;;-3.10;89.60;97960.03;5095625;28;20447;-32
2022/01/12 09:37:39;;;;;;;15.97;9.13;;;;;;;-3.06;89.54;97953.66;5095220;28;20447;-32
2022/01/12 09:40:08;;;;;;;16.60;7.40;;;;;;;-3.06;89.36;97951.06;5095086;28;20449;-32
2022/01/12 09:42:37;;;;;;;26.83;9.60;;;;;;;-3.09;88.90;97957.31;5095215;28;20443;-32
2022/01/12 09:45:06;;;;;;;17.50;7.33;;;;;;;-3.14;89.56;97945.63;5095188;28;20997;-32
2022/01/12 09:47:34;;;;;;;17.40;8.97;;;;;;;-3.12;90.71;97941.13;5094957;28;21018;-31
2022/01/12 09:50:03;;;;;;;19.17;7.90;;;;;;;-2.99;90.11;97943.59;5094943;28;20443;-32
2022/01/12 09:52:30;;;;;;;17.43;7.00;;;;;;;-3.04;88.51;97948.34;5094890;28;20952;-32
2022/01/12 09:54:57;;;;;;;18.80;6.60;;;;;;;-3.09;88.84;97943.50;5094840;28;20949;-31
2022/01/12 09:57:24;;;;;;;10.50;5.37;;;;;;;-3.07;86.76;97928.63;5094752;28;20564;-32
2022/01/12 09:59:53;;;;;;;13.23;6.97;;;;;;;-3.01;88.10;97948.94;5094752;28;20446;-33
2022/01/12 10:02:21;;;;;;;18.30;6.70;;;;;;;-3.11;87.12;97941.03;5094834;28;20450;-34
2022/01/12 10:04:49;;;;;;;24.77;10.43;;;;;;;-3.10;88.26;97940.09;5094729;28;20443;-32
2022/01/12 10:07:23;;;;;;;35.23;18.67;;;;;;;-2.99;87.39;97938.38;5095172;28;20457;-31
2022/01/12 10:09:50;;;;;;;32.40;16.73;;;;;;;-2.96;87.00;97943.34;5094605;28;20442;-32
2022/01/12 10:12:19;;;;;;;26.20;8.97;;;;;;;-2.89;87.72;97934.09;5094185;28;20492;-32
2022/01/12 10:14:49;;;;;;;22.50;10.90;;;;;;;-2.95;87.24;97940.63;5094454;28;20443;-31
2022/01/12 10:17:19;;;;;;;29.53;13.30;;;;;;;-2.92;86.88;97937.78;5095281;28;20529;-31
2022/01/12 10:19:47;;;;;;;22.53;9.30;;;;;;;-2.86;85.32;97943.44;5094761;28;20449;-31
2022/01/12 10:22:15;;;;;;;16.03;7.57;;;;;;;-2.78;85.57;97935.84;5094312;28;20522;-32
2022/01/12 10:24:45;;;;;;;14.03;6.30;;;;;;;-2.75;85.59;97936.44;5094191;28;20812;-32
2022/01/12 10:27:14;;;;;;;20.00;9.13;;;;;;;-2.66;84.58;97939.25;5094763;28;20494;-32
2022/01/12 10:29:43;;;;;;;12.20;6.97;;;;;;;-2.64;85.05;97943.34;5094174;28;20439;-32
2022/01/12 10:32:10;;;;;;;29.83;13.87;;;;;;;-2.63;84.25;97944.16;5094140;28;20923;-32
2022/01/12 10:34:41;;;;;;;20.37;11.23;;;;;;;-2.55;84.30;97933.97;5094408;28;20526;-32
2022/01/12 10:37:10;;;;;;;17.30;7.57;;;;;;;-2.45;83.34;97934.03;5094497;28;20434;-33
2022/01/12 10:39:40;;;;;;;15.60;7.77;;;;;;;-2.48;83.07;97925.53;5093972;28;20445;-32
2022/01/12 10:42:10;;;;;;;10.50;5.93;;;;;;;-2.34;81.70;97934.00;5094353;28;20923;-33
2022/01/12 10:44:40;;;;;;;26.73;10.13;;;;;;;-2.28;81.61;97936.91;5093962;28;20439;-32
2022/01/12 10:47:13;;;;;;;19.23;13.50;;;;;;;-2.24;82.50;97929.66;5093759;28;20526;-33
2022/01/12 10:49:44;;;;;;;28.13;10.77;;;;;;;-2.19;82.35;97937.09;5094224;28;20419;-33
2022/01/12 10:52:14;;;;;;;28.50;9.83;;;;;;;-2.23;81.83;97926.09;5093870;28;20911;-32
2022/01/12 10:54:49;;;;;;;30.40;13.00;;;;;;;-2.19;81.90;97937.09;5093768;28;20445;-32
2022/01/12 10:57:24;;;;;;;20.40;8.43;;;;;;;-2.21;82.37;97934.63;5093839;28;20486;-33
2022/01/12 11:00:08;;;;;;;10.57;6.13;;;;;;;-2.28;82.25;97933.47;5093846;28;20436;-33
2022/01/12 11:02:38;;;;;;;10.30;6.63;;;;;;;-2.50;82.00;97914.41;5093707;28;20431;-32
2022/01/12 11:05:09;;;;;;;13.30;7.07;;;;;;;-2.55;82.24;97927.00;5093547;28;20952;-33
2022/01/12 11:07:37;;;;;;;18.57;7.80;;;;;;;-2.63;82.83;97913.78;5093594;28;20496;-33
2022/01/12 11:10:07;;;;;;;11.73;6.97;;;;;;;-2.51;82.92;97936.19;5093347;28;20805;-33
2022/01/12 11:12:35;;;;;;;20.83;6.63;;;;;;;-2.55;82.30;97937.41;5093583;28;20450;-32
2022/01/12 11:15:03;;;;;;;31.47;16.87;;;;;;;-2.62;82.31;97931.06;5093674;28;20447;-33
2022/01/12 11:17:30;;;;;;;17.20;6.67;;;;;;;-2.60;81.78;97923.97;5093350;28;20447;-32
2022/01/12 11:20:06;;;;;;;12.43;6.53;;;;;;;-2.58;82.00;97922.06;5093488;28;20919;-32
2022/01/12 11:22:46;;;;;;;28.67;12.77;;;;;;;-2.45;82.02;97932.28;5093728;28;20477;-33
2022/01/12 11:25:24;;;;;;;71.23;24.93;;;;;;;-2.42;80.50;97928.59;5092906;28;20480;-33
2022/01/12 11:28:05;;;;;;;135.17;40.67;;;;;;;-2.37;80.61;97936.81;5093327;28;20427;-32
2022/01/12 11:30:33;;;;;;;83.20;35.23;;;;;;;-2.20;81.46;97930.22;5093481;28;20441;-33
2022/01/12 11:33:02;;;;;;;13.00;7.73;;;;;;;-2.15;80.52;97931.50;5093688;28;20447;-33
2022/01/12 11:35:32;;;;;;;13.47;7.43;;;;;;;-2.11;80.34;97930.31;5093589;28;20443;-33
2022/01/12 11:38:01;;;;;;;11.20;5.20;;;;;;;-2.08;79.51;97924.81;5093339;28;20926;-33
2022/01/12 11:40:40;;;;;;;14.27;7.87;;;;;;;-1.99;79.98;97938.03;5093340;28;20445;-33
2022/01/12 11:43:19;;;;;;;17.33;7.20;;;;;;;-1.87;80.33;97942.19;5093375;28;20431;-33
2022/01/12 11:45:46;;;;;;;14.33;6.23;;;;;;;-1.81;80.02;97940.84;5093133;28;20470;-32
2022/01/12 11:48:14;;;;;;;15.00;8.13;;;;;;;-1.86;80.07;97947.25;5093193;28;20439;-32
2022/01/12 11:50:41;;;;;;;16.10;6.20;;;;;;;-1.99;80.42;97925.00;5093503;28;20934;-33
2022/01/12 11:53:20;;;;;;;34.93;16.60;;;;;;;-1.79;80.41;97942.34;5093586;28;20435;-33
2022/01/12 11:55:48;;;;;;;23.83;10.80;;;;;;;-1.66;80.74;97949.94;5093461;28;20485;-33
2022/01/12 11:58:18;;;;;;;13.13;7.20;;;;;;;-1.58;80.31;97947.53;5093070;28;20493;-31
2022/01/12 12:00:45;;;;;;;20.53;10.87;;;;;;;-1.55;79.65;97942.06;5093309;28;20945;-32
2022/01/12 12:03:18;;;;;;;19.20;8.37;;;;;;;-1.57;79.52;97953.53;5092911;28;20449;-32
2022/01/12 12:05:45;;;;;;;18.73;11.83;;;;;;;-1.53;79.13;97954.94;5093201;28;20489;-32
2022/01/12 12:08:25;;;;;;;12.30;7.43;;;;;;;-1.46;79.85;97945.66;5092935;28;20446;-32
2022/01/12 12:10:54;;;;;;;18.03;6.90;;;;;;;-1.34;80.52;97960.22;5092924;28;20915;-31
2022/01/12 12:13:22;;;;;;;31.03;13.70;;;;;;;-1.18;80.16;97953.66;5093055;28;20789;-31
2022/01/12 12:15:51;;;;;;;27.03;12.90;;;;;;;-1.10;80.22;97946.00;5093290;28;20443;-32
2022/01/12 12:18:18;;;;;;;20.63;9.17;;;;;;;-1.01;80.01;97950.44;5092894;28;20942;-32
2022/01/12 12:20:46;;;;;;;28.87;11.47;;;;;;;-0.93;79.62;97960.97;5092823;28;20450;-32
2022/01/12 12:23:15;;;;;;;15.70;8.70;;;;;;;-0.85;79.18;97971.56;5092901;28;20955;-32
2022/01/12 12:25:42;;;;;;;16.80;8.77;;;;;;;-0.90;77.63;97963.34;5093025;28;20446;-32
2022/01/12 12:28:13;;;;;;;22.80;9.80;;;;;;;-0.87;78.91;97970.88;5092806;28;20981;-32
2022/01/12 12:30:41;;;;;;;33.57;15.37;;;;;;;-0.81;79.20;97963.50;5092662;28;20926;-31
2022/01/12 12:33:11;;;;;;;32.77;13.60;;;;;;;-0.77;79.49;97967.47;5092745;28;20450;-31
2022/01/12 12:35:39;;;;;;;21.77;10.67;;;;;;;-0.84;80.07;97972.38;5094245;28;20430;-32
2022/01/12 12:38:08;;;;;;;23.87;14.70;;;;;;;-0.76;79.88;97961.28;5096460;28;20447;-32
2022/01/12 12:40:39;;;;;;;16.93;10.70;;;;;;;-0.72;79.40;97960.88;5096328;28;20449;-32
2022/01/12 12:43:12;;;;;;;21.77;9.23;;;;;;;-0.71;79.22;97966.91;5096690;28;20465;-32
2022/01/12 12:45:43;;;;;;;46.97;19.87;;;;;;;-0.71;79.78;97967.75;5096408;28;20435;-32
2022/01/12 12:48:15;;;;;;;46.60;21.00;;;;;;;-0.68;79.93;97966.66;5096312;28;20443;-32
2022/01/12 12:50:43;;;;;;;23.93;11.67;;;;;;;-0.65;80.05;97971.59;5096605;28;20435;-32
2022/01/12 12:53:11;;;;;;;20.40;12.10;;;;;;;-0.64;80.07;97960.19;5096583;28;20442;-32
2022/01/12 12:55:42;;;;;;;28.30;13.10;;;;;;;-0.64;79.81;97962.81;5096067;28;20542;-33